sensor_id;sensor_type;location;lat;lon;timestamp;P1;durP1;ratioP1;P2;durP2;ratioP2
56537;SDS011;42435;53.292;6.000;2024-03-02T00:01:23;2.67;;;2.20;;
56537;SDS011;42435;53.292;6.000;2024-03-02T00:03:58;4.00;;;2.80;;
56537;SDS011;42435;53.292;6.000;2024-03-02T00:06:40;3.30;;;2.15;;
56537;SDS011;42435;53.292;6.000;2024-03-02T00:09:11;4.55;;;2.35;;
56537;SDS011;42435;53.292;6.000;2024-03-02T00:12:15;3.20;;;2.28;;
56537;SDS011;42435;53.292;6.000;2024-03-02T00:14:42;4.32;;;2.50;;
56537;SDS011;42435;53.292;6.000;2024-03-02T00:17:24;4.25;;;2.42;;
56537;SDS011;42435;53.292;6.000;2024-03-02T00:19:57;2.95;;;2.38;;
56537;SDS011;42435;53.292;6.000;2024-03-02T00:22:31;3.13;;;2.30;;
56537;SDS011;42435;53.292;6.000;2024-03-02T00:25:06;3.03;;;2.30;;
56537;SDS011;42435;53.292;6.000;2024-03-02T00:27:40;3.20;;;2.47;;
56537;SDS011;42435;53.292;6.000;2024-03-02T00:30:36;4.20;;;3.47;;
56537;SDS011;42435;53.292;6.000;2024-03-02T00:33:26;3.53;;;2.67;;
56537;SDS011;42435;53.292;6.000;2024-03-02T00:35:54;3.33;;;2.40;;
56537;SDS011;42435;53.292;6.000;2024-03-02T00:39:02;5.25;;;2.60;;
56537;SDS011;42435;53.292;6.000;2024-03-02T00:41:29;5.35;;;3.33;;
56537;SDS011;42435;53.292;6.000;2024-03-02T00:44:18;2.92;;;2.45;;
56537;SDS011;42435;53.292;6.000;2024-03-02T00:46:52;4.45;;;2.63;;
56537;SDS011;42435;53.292;6.000;2024-03-02T00:49:36;5.47;;;2.97;;
56537;SDS011;42435;53.292;6.000;2024-03-02T00:52:13;4.40;;;2.60;;
56537;SDS011;42435;53.292;6.000;2024-03-02T00:54:40;3.75;;;2.60;;
56537;SDS011;42435;53.292;6.000;2024-03-02T00:57:11;4.45;;;2.60;;
56537;SDS011;42435;53.292;6.000;2024-03-02T00:59:48;4.55;;;2.85;;
56537;SDS011;42435;53.292;6.000;2024-03-02T01:02:30;3.97;;;2.60;;
56537;SDS011;42435;53.292;6.000;2024-03-02T01:04:59;5.18;;;2.92;;
56537;SDS011;42435;53.292;6.000;2024-03-02T01:07:25;3.58;;;2.60;;
56537;SDS011;42435;53.292;6.000;2024-03-02T01:09:55;5.13;;;2.88;;
56537;SDS011;42435;53.292;6.000;2024-03-02T01:12:25;3.53;;;2.72;;
56537;SDS011;42435;53.292;6.000;2024-03-02T01:14:54;3.90;;;2.78;;
56537;SDS011;42435;53.292;6.000;2024-03-02T01:17:33;4.70;;;2.65;;
56537;SDS011;42435;53.292;6.000;2024-03-02T01:20:07;3.63;;;2.40;;
56537;SDS011;42435;53.292;6.000;2024-03-02T01:22:53;3.28;;;2.70;;
56537;SDS011;42435;53.292;6.000;2024-03-02T01:25:33;3.95;;;2.60;;
56537;SDS011;42435;53.292;6.000;2024-03-02T01:28:18;3.15;;;2.42;;
56537;SDS011;42435;53.292;6.000;2024-03-02T01:30:53;3.05;;;2.50;;
56537;SDS011;42435;53.292;6.000;2024-03-02T01:33:24;4.05;;;2.55;;
56537;SDS011;42435;53.292;6.000;2024-03-02T01:35:50;3.65;;;2.45;;
56537;SDS011;42435;53.292;6.000;2024-03-02T01:38:20;3.90;;;2.50;;
56537;SDS011;42435;53.292;6.000;2024-03-02T01:40:48;3.05;;;2.25;;
56537;SDS011;42435;53.292;6.000;2024-03-02T01:43:15;4.32;;;2.35;;
56537;SDS011;42435;53.292;6.000;2024-03-02T01:45:44;5.15;;;2.30;;
56537;SDS011;42435;53.292;6.000;2024-03-02T01:48:25;2.83;;;2.50;;
56537;SDS011;42435;53.292;6.000;2024-03-02T01:51:22;3.55;;;2.30;;
56537;SDS011;42435;53.292;6.000;2024-03-02T01:53:51;2.75;;;2.10;;
56537;SDS011;42435;53.292;6.000;2024-03-02T01:56:23;4.97;;;2.20;;
56537;SDS011;42435;53.292;6.000;2024-03-02T01:59:04;3.55;;;1.98;;
56537;SDS011;42435;53.292;6.000;2024-03-02T02:01:39;3.83;;;2.28;;
56537;SDS011;42435;53.292;6.000;2024-03-02T02:04:24;3.78;;;2.38;;
56537;SDS011;42435;53.292;6.000;2024-03-02T02:07:05;4.28;;;2.30;;
56537;SDS011;42435;53.292;6.000;2024-03-02T02:09:46;3.38;;;2.20;;
56537;SDS011;42435;53.292;6.000;2024-03-02T02:12:37;5.65;;;2.38;;
56537;SDS011;42435;53.292;6.000;2024-03-02T02:18:00;3.65;;;2.38;;
56537;SDS011;42435;53.292;6.000;2024-03-02T02:20:35;3.78;;;2.15;;
56537;SDS011;42435;53.292;6.000;2024-03-02T02:23:03;6.75;;;2.05;;
56537;SDS011;42435;53.292;6.000;2024-03-02T02:25:33;2.85;;;1.92;;
56537;SDS011;42435;53.292;6.000;2024-03-02T02:28:03;3.17;;;2.03;;
56537;SDS011;42435;53.292;6.000;2024-03-02T02:30:33;4.18;;;2.17;;
56537;SDS011;42435;53.292;6.000;2024-03-02T02:33:01;2.25;;;1.73;;
56537;SDS011;42435;53.292;6.000;2024-03-02T02:35:37;2.92;;;1.63;;
56537;SDS011;42435;53.292;6.000;2024-03-02T02:38:08;6.50;;;2.22;;
56537;SDS011;42435;53.292;6.000;2024-03-02T02:40:34;3.15;;;1.92;;
56537;SDS011;42435;53.292;6.000;2024-03-02T02:43:04;1.83;;;1.60;;
56537;SDS011;42435;53.292;6.000;2024-03-02T02:45:35;3.78;;;2.13;;
56537;SDS011;42435;53.292;6.000;2024-03-02T02:48:02;3.83;;;1.83;;
56537;SDS011;42435;53.292;6.000;2024-03-02T02:50:35;3.47;;;2.03;;
56537;SDS011;42435;53.292;6.000;2024-03-02T02:53:28;3.50;;;2.10;;
56537;SDS011;42435;53.292;6.000;2024-03-02T02:56:17;1.85;;;1.70;;
56537;SDS011;42435;53.292;6.000;2024-03-02T02:59:17;3.28;;;2.10;;
56537;SDS011;42435;53.292;6.000;2024-03-02T03:01:53;4.63;;;2.00;;
56537;SDS011;42435;53.292;6.000;2024-03-02T03:04:22;3.58;;;2.10;;
56537;SDS011;42435;53.292;6.000;2024-03-02T03:06:51;3.03;;;2.10;;
56537;SDS011;42435;53.292;6.000;2024-03-02T03:09:20;3.72;;;2.50;;
56537;SDS011;42435;53.292;6.000;2024-03-02T03:11:50;3.92;;;2.28;;
56537;SDS011;42435;53.292;6.000;2024-03-02T03:14:26;2.78;;;2.10;;
56537;SDS011;42435;53.292;6.000;2024-03-02T03:16:54;4.82;;;2.58;;
56537;SDS011;42435;53.292;6.000;2024-03-02T03:19:28;4.10;;;2.13;;
56537;SDS011;42435;53.292;6.000;2024-03-02T03:22:12;2.45;;;2.22;;
56537;SDS011;42435;53.292;6.000;2024-03-02T03:24:42;3.47;;;2.00;;
56537;SDS011;42435;53.292;6.000;2024-03-02T03:27:15;3.17;;;2.00;;
56537;SDS011;42435;53.292;6.000;2024-03-02T03:29:52;3.20;;;2.22;;
56537;SDS011;42435;53.292;6.000;2024-03-02T03:35:28;4.85;;;2.60;;
56537;SDS011;42435;53.292;6.000;2024-03-02T03:38:01;3.22;;;1.95;;
56537;SDS011;42435;53.292;6.000;2024-03-02T03:42:57;3.47;;;2.30;;
56537;SDS011;42435;53.292;6.000;2024-03-02T03:45:31;2.45;;;2.17;;
56537;SDS011;42435;53.292;6.000;2024-03-02T03:48:18;2.75;;;2.30;;
56537;SDS011;42435;53.292;6.000;2024-03-02T03:50:46;4.40;;;2.42;;
56537;SDS011;42435;53.292;6.000;2024-03-02T03:53:16;5.30;;;3.67;;
56537;SDS011;42435;53.292;6.000;2024-03-02T03:55:47;2.50;;;2.30;;
56537;SDS011;42435;53.292;6.000;2024-03-02T03:58:15;2.92;;;2.60;;
56537;SDS011;42435;53.292;6.000;2024-03-02T04:00:53;5.00;;;2.38;;
56537;SDS011;42435;53.292;6.000;2024-03-02T04:03:59;3.65;;;2.72;;
56537;SDS011;42435;53.292;6.000;2024-03-02T04:06:30;3.05;;;2.30;;
56537;SDS011;42435;53.292;6.000;2024-03-02T04:09:02;2.90;;;2.28;;
56537;SDS011;42435;53.292;6.000;2024-03-02T04:11:39;3.13;;;2.30;;
56537;SDS011;42435;53.292;6.000;2024-03-02T04:14:13;4.15;;;2.58;;
56537;SDS011;42435;53.292;6.000;2024-03-02T04:16:49;2.45;;;2.10;;
56537;SDS011;42435;53.292;6.000;2024-03-02T04:19:21;3.05;;;2.40;;
56537;SDS011;42435;53.292;6.000;2024-03-02T04:21:50;4.35;;;2.50;;
56537;SDS011;42435;53.292;6.000;2024-03-02T04:24:19;4.60;;;2.22;;
56537;SDS011;42435;53.292;6.000;2024-03-02T04:26:47;7.32;;;2.78;;
56537;SDS011;42435;53.292;6.000;2024-03-02T04:29:34;4.38;;;2.42;;
56537;SDS011;42435;53.292;6.000;2024-03-02T04:32:00;2.55;;;2.05;;
56537;SDS011;42435;53.292;6.000;2024-03-02T04:34:30;3.28;;;2.30;;
56537;SDS011;42435;53.292;6.000;2024-03-02T04:36:57;3.10;;;2.30;;
56537;SDS011;42435;53.292;6.000;2024-03-02T04:39:27;3.72;;;2.40;;
56537;SDS011;42435;53.292;6.000;2024-03-02T04:42:00;4.07;;;2.13;;
56537;SDS011;42435;53.292;6.000;2024-03-02T04:44:34;4.88;;;2.13;;
56537;SDS011;42435;53.292;6.000;2024-03-02T04:47:00;3.45;;;1.90;;
56537;SDS011;42435;53.292;6.000;2024-03-02T04:49:31;4.50;;;2.17;;
56537;SDS011;42435;53.292;6.000;2024-03-02T04:51:59;3.00;;;1.55;;
56537;SDS011;42435;53.292;6.000;2024-03-02T04:54:28;3.42;;;1.23;;
56537;SDS011;42435;53.292;6.000;2024-03-02T04:56:59;2.33;;;0.90;;
56537;SDS011;42435;53.292;6.000;2024-03-02T04:59:25;0.77;;;0.52;;
56537;SDS011;42435;53.292;6.000;2024-03-02T05:01:56;0.63;;;0.50;;
56537;SDS011;42435;53.292;6.000;2024-03-02T05:04:29;0.73;;;0.40;;
56537;SDS011;42435;53.292;6.000;2024-03-02T05:07:01;1.73;;;0.40;;
56537;SDS011;42435;53.292;6.000;2024-03-02T05:09:28;0.63;;;0.60;;
56537;SDS011;42435;53.292;6.000;2024-03-02T05:11:56;0.65;;;0.32;;
56537;SDS011;42435;53.292;6.000;2024-03-02T05:14:40;0.90;;;0.50;;
56537;SDS011;42435;53.292;6.000;2024-03-02T05:17:06;1.00;;;0.30;;
56537;SDS011;42435;53.292;6.000;2024-03-02T05:22:08;0.95;;;0.20;;
56537;SDS011;42435;53.292;6.000;2024-03-02T05:24:42;0.60;;;0.30;;
56537;SDS011;42435;53.292;6.000;2024-03-02T05:27:31;0.82;;;0.20;;
56537;SDS011;42435;53.292;6.000;2024-03-02T05:30:06;1.15;;;0.60;;
56537;SDS011;42435;53.292;6.000;2024-03-02T05:32:52;0.80;;;0.32;;
56537;SDS011;42435;53.292;6.000;2024-03-02T05:35:44;1.60;;;0.40;;
56537;SDS011;42435;53.292;6.000;2024-03-02T05:40:56;0.57;;;0.40;;
56537;SDS011;42435;53.292;6.000;2024-03-02T05:43:44;0.80;;;0.35;;
56537;SDS011;42435;53.292;6.000;2024-03-02T05:46:37;0.82;;;0.30;;
56537;SDS011;42435;53.292;6.000;2024-03-02T05:49:33;0.43;;;0.30;;
56537;SDS011;42435;53.292;6.000;2024-03-02T05:52:14;0.45;;;0.38;;
56537;SDS011;42435;53.292;6.000;2024-03-02T05:54:43;2.67;;;0.30;;
56537;SDS011;42435;53.292;6.000;2024-03-02T05:57:09;1.88;;;0.30;;
56537;SDS011;42435;53.292;6.000;2024-03-02T05:59:59;1.08;;;0.35;;
56537;SDS011;42435;53.292;6.000;2024-03-02T06:02:29;0.57;;;0.20;;
56537;SDS011;42435;53.292;6.000;2024-03-02T06:05:12;1.52;;;0.30;;
56537;SDS011;42435;53.292;6.000;2024-03-02T06:07:37;1.33;;;0.40;;
56537;SDS011;42435;53.292;6.000;2024-03-02T06:10:05;0.35;;;0.30;;
56537;SDS011;42435;53.292;6.000;2024-03-02T06:12:34;1.48;;;0.30;;
56537;SDS011;42435;53.292;6.000;2024-03-02T06:15:01;1.05;;;0.35;;
56537;SDS011;42435;53.292;6.000;2024-03-02T06:17:29;1.30;;;0.50;;
56537;SDS011;42435;53.292;6.000;2024-03-02T06:20:02;0.43;;;0.30;;
56537;SDS011;42435;53.292;6.000;2024-03-02T06:25:29;1.05;;;0.40;;
56537;SDS011;42435;53.292;6.000;2024-03-02T06:28:02;3.13;;;0.55;;
56537;SDS011;42435;53.292;6.000;2024-03-02T06:30:52;0.57;;;0.30;;
56537;SDS011;42435;53.292;6.000;2024-03-02T06:33:32;1.15;;;0.50;;
56537;SDS011;42435;53.292;6.000;2024-03-02T06:35:58;2.35;;;0.70;;
56537;SDS011;42435;53.292;6.000;2024-03-02T06:39:07;2.30;;;0.60;;
56537;SDS011;42435;53.292;6.000;2024-03-02T06:41:33;1.27;;;0.75;;
56537;SDS011;42435;53.292;6.000;2024-03-02T06:44:12;1.08;;;0.70;;
56537;SDS011;42435;53.292;6.000;2024-03-02T06:46:45;1.00;;;0.60;;
56537;SDS011;42435;53.292;6.000;2024-03-02T06:49:14;1.88;;;0.70;;
56537;SDS011;42435;53.292;6.000;2024-03-02T06:51:45;0.77;;;0.60;;
56537;SDS011;42435;53.292;6.000;2024-03-02T06:54:15;1.77;;;0.70;;
56537;SDS011;42435;53.292;6.000;2024-03-02T06:56:46;0.55;;;0.52;;
56537;SDS011;42435;53.292;6.000;2024-03-02T06:59:23;2.63;;;0.60;;
56537;SDS011;42435;53.292;6.000;2024-03-02T07:02:06;0.70;;;0.60;;
56537;SDS011;42435;53.292;6.000;2024-03-02T07:04:44;1.52;;;0.52;;
56537;SDS011;42435;53.292;6.000;2024-03-02T07:07:31;3.50;;;0.80;;
56537;SDS011;42435;53.292;6.000;2024-03-02T07:10:27;0.80;;;0.40;;
56537;SDS011;42435;53.292;6.000;2024-03-02T07:12:59;1.75;;;0.73;;
56537;SDS011;42435;53.292;6.000;2024-03-02T07:15:25;1.88;;;0.70;;
56537;SDS011;42435;53.292;6.000;2024-03-02T07:18:09;2.13;;;0.63;;
56537;SDS011;42435;53.292;6.000;2024-03-02T07:20:50;0.80;;;0.70;;
56537;SDS011;42435;53.292;6.000;2024-03-02T07:23:21;0.90;;;0.77;;
56537;SDS011;42435;53.292;6.000;2024-03-02T07:25:54;1.35;;;0.90;;
56537;SDS011;42435;53.292;6.000;2024-03-02T07:28:27;1.17;;;0.80;;
56537;SDS011;42435;53.292;6.000;2024-03-02T07:31:03;0.90;;;0.68;;
56537;SDS011;42435;53.292;6.000;2024-03-02T07:33:30;0.90;;;0.68;;
56537;SDS011;42435;53.292;6.000;2024-03-02T07:36:01;1.00;;;0.60;;
56537;SDS011;42435;53.292;6.000;2024-03-02T07:38:28;1.90;;;0.60;;
56537;SDS011;42435;53.292;6.000;2024-03-02T07:41:06;5.05;;;0.70;;
56537;SDS011;42435;53.292;6.000;2024-03-02T07:43:59;0.82;;;0.60;;
56537;SDS011;42435;53.292;6.000;2024-03-02T07:46:30;1.17;;;0.70;;
56537;SDS011;42435;53.292;6.000;2024-03-02T07:48:59;1.70;;;0.60;;
56537;SDS011;42435;53.292;6.000;2024-03-02T07:51:31;0.82;;;0.50;;
56537;SDS011;42435;53.292;6.000;2024-03-02T07:54:01;1.10;;;0.50;;
56537;SDS011;42435;53.292;6.000;2024-03-02T07:56:27;3.42;;;0.52;;
56537;SDS011;42435;53.292;6.000;2024-03-02T07:58:53;0.63;;;0.50;;
56537;SDS011;42435;53.292;6.000;2024-03-02T08:01:20;1.40;;;0.60;;
56537;SDS011;42435;53.292;6.000;2024-03-02T08:03:49;1.50;;;0.55;;
56537;SDS011;42435;53.292;6.000;2024-03-02T08:06:20;2.58;;;0.68;;
56537;SDS011;42435;53.292;6.000;2024-03-02T08:08:50;0.80;;;0.40;;
56537;SDS011;42435;53.292;6.000;2024-03-02T08:11:20;0.50;;;0.30;;
56537;SDS011;42435;53.292;6.000;2024-03-02T08:13:48;1.60;;;0.40;;
56537;SDS011;42435;53.292;6.000;2024-03-02T08:16:26;2.13;;;0.90;;
56537;SDS011;42435;53.292;6.000;2024-03-02T08:18:52;1.85;;;0.55;;
56537;SDS011;42435;53.292;6.000;2024-03-02T08:21:24;0.77;;;0.45;;
56537;SDS011;42435;53.292;6.000;2024-03-02T08:23:56;1.65;;;0.70;;
56537;SDS011;42435;53.292;6.000;2024-03-02T08:26:25;2.88;;;0.90;;
56537;SDS011;42435;53.292;6.000;2024-03-02T08:29:11;1.80;;;0.80;;
56537;SDS011;42435;53.292;6.000;2024-03-02T08:34:13;2.33;;;0.65;;
56537;SDS011;42435;53.292;6.000;2024-03-02T08:36:49;1.38;;;0.68;;
56537;SDS011;42435;53.292;6.000;2024-03-02T08:39:31;1.45;;;0.68;;
56537;SDS011;42435;53.292;6.000;2024-03-02T08:41:59;2.13;;;0.50;;
56537;SDS011;42435;53.292;6.000;2024-03-02T08:44:29;1.15;;;0.60;;
56537;SDS011;42435;53.292;6.000;2024-03-02T08:47:00;1.75;;;0.73;;
56537;SDS011;42435;53.292;6.000;2024-03-02T08:49:38;3.25;;;2.05;;
56537;SDS011;42435;53.292;6.000;2024-03-02T08:52:11;1.25;;;0.70;;
56537;SDS011;42435;53.292;6.000;2024-03-02T08:54:38;3.30;;;1.20;;
56537;SDS011;42435;53.292;6.000;2024-03-02T08:57:10;1.15;;;0.52;;
56537;SDS011;42435;53.292;6.000;2024-03-02T08:59:37;3.50;;;1.00;;
56537;SDS011;42435;53.292;6.000;2024-03-02T09:02:08;1.38;;;0.80;;
56537;SDS011;42435;53.292;6.000;2024-03-02T09:04:49;2.05;;;0.60;;
56537;SDS011;42435;53.292;6.000;2024-03-02T09:07:16;2.92;;;1.15;;
56537;SDS011;42435;53.292;6.000;2024-03-02T09:09:44;1.52;;;0.70;;
56537;SDS011;42435;53.292;6.000;2024-03-02T09:12:27;2.50;;;1.10;;
56537;SDS011;42435;53.292;6.000;2024-03-02T09:17:43;2.03;;;1.10;;
56537;SDS011;42435;53.292;6.000;2024-03-02T09:20:42;4.00;;;1.58;;
56537;SDS011;42435;53.292;6.000;2024-03-02T09:23:08;2.22;;;1.17;;
56537;SDS011;42435;53.292;6.000;2024-03-02T09:25:54;1.77;;;0.93;;
56537;SDS011;42435;53.292;6.000;2024-03-02T09:28:55;2.22;;;1.80;;
56537;SDS011;42435;53.292;6.000;2024-03-02T09:31:43;3.15;;;1.42;;
56537;SDS011;42435;53.292;6.000;2024-03-02T09:34:26;2.95;;;1.40;;
56537;SDS011;42435;53.292;6.000;2024-03-02T09:37:06;2.85;;;1.58;;
56537;SDS011;42435;53.292;6.000;2024-03-02T09:39:43;4.18;;;2.28;;
56537;SDS011;42435;53.292;6.000;2024-03-02T09:42:22;4.25;;;1.52;;
56537;SDS011;42435;53.292;6.000;2024-03-02T09:45:24;2.92;;;1.42;;
56537;SDS011;42435;53.292;6.000;2024-03-02T09:48:16;3.63;;;1.98;;
56537;SDS011;42435;53.292;6.000;2024-03-02T09:50:49;4.80;;;1.63;;
56537;SDS011;42435;53.292;6.000;2024-03-02T09:53:24;3.88;;;1.67;;
56537;SDS011;42435;53.292;6.000;2024-03-02T09:56:00;5.68;;;1.60;;
56537;SDS011;42435;53.292;6.000;2024-03-02T09:58:29;3.78;;;1.52;;
56537;SDS011;42435;53.292;6.000;2024-03-02T10:00:56;3.65;;;1.38;;
56537;SDS011;42435;53.292;6.000;2024-03-02T10:03:26;3.05;;;1.20;;
56537;SDS011;42435;53.292;6.000;2024-03-02T10:06:22;1.95;;;0.90;;
56537;SDS011;42435;53.292;6.000;2024-03-02T10:09:00;3.17;;;1.45;;
56537;SDS011;42435;53.292;6.000;2024-03-02T10:11:32;4.13;;;1.17;;
56537;SDS011;42435;53.292;6.000;2024-03-02T10:14:12;2.58;;;1.13;;
56537;SDS011;42435;53.292;6.000;2024-03-02T10:16:45;2.15;;;1.05;;
56537;SDS011;42435;53.292;6.000;2024-03-02T10:19:18;1.52;;;0.82;;
56537;SDS011;42435;53.292;6.000;2024-03-02T10:21:46;3.42;;;1.48;;
56537;SDS011;42435;53.292;6.000;2024-03-02T10:24:19;2.58;;;1.13;;
56537;SDS011;42435;53.292;6.000;2024-03-02T10:26:48;2.65;;;1.50;;
56537;SDS011;42435;53.292;6.000;2024-03-02T10:29:14;2.17;;;1.15;;
56537;SDS011;42435;53.292;6.000;2024-03-02T10:31:46;2.90;;;0.88;;
56537;SDS011;42435;53.292;6.000;2024-03-02T10:34:19;0.73;;;0.47;;
56537;SDS011;42435;53.292;6.000;2024-03-02T10:36:50;2.75;;;1.48;;
56537;SDS011;42435;53.292;6.000;2024-03-02T10:39:26;1.40;;;0.50;;
56537;SDS011;42435;53.292;6.000;2024-03-02T10:42:01;2.53;;;0.57;;
56537;SDS011;42435;53.292;6.000;2024-03-02T10:44:40;3.20;;;0.70;;
56537;SDS011;42435;53.292;6.000;2024-03-02T10:47:06;2.92;;;0.90;;
56537;SDS011;42435;53.292;6.000;2024-03-02T10:49:41;1.98;;;0.75;;
56537;SDS011;42435;53.292;6.000;2024-03-02T10:52:28;3.40;;;0.95;;
56537;SDS011;42435;53.292;6.000;2024-03-02T10:54:57;1.25;;;0.60;;
56537;SDS011;42435;53.292;6.000;2024-03-02T10:57:30;1.10;;;0.60;;
56537;SDS011;42435;53.292;6.000;2024-03-02T11:00:24;1.85;;;0.47;;
56537;SDS011;42435;53.292;6.000;2024-03-02T11:03:04;2.55;;;0.60;;
56537;SDS011;42435;53.292;6.000;2024-03-02T11:05:41;0.80;;;0.50;;
56537;SDS011;42435;53.292;6.000;2024-03-02T11:08:15;2.72;;;0.60;;
56537;SDS011;42435;53.292;6.000;2024-03-02T11:10:58;1.65;;;0.90;;
56537;SDS011;42435;53.292;6.000;2024-03-02T11:13:37;0.95;;;0.60;;
56537;SDS011;42435;53.292;6.000;2024-03-02T11:16:27;1.30;;;0.73;;
56537;SDS011;42435;53.292;6.000;2024-03-02T11:21:46;1.60;;;0.70;;
56537;SDS011;42435;53.292;6.000;2024-03-02T11:27:06;1.77;;;0.52;;
56537;SDS011;42435;53.292;6.000;2024-03-02T11:32:23;1.95;;;0.45;;
56537;SDS011;42435;53.292;6.000;2024-03-02T11:34:49;1.88;;;0.73;;
56537;SDS011;42435;53.292;6.000;2024-03-02T11:37:24;2.13;;;0.65;;
56537;SDS011;42435;53.292;6.000;2024-03-02T11:39:56;3.67;;;0.70;;
56537;SDS011;42435;53.292;6.000;2024-03-02T11:42:26;3.25;;;0.70;;
56537;SDS011;42435;53.292;6.000;2024-03-02T11:45:02;2.92;;;0.52;;
56537;SDS011;42435;53.292;6.000;2024-03-02T11:47:32;1.42;;;0.60;;
56537;SDS011;42435;53.292;6.000;2024-03-02T11:50:06;3.33;;;0.90;;
56537;SDS011;42435;53.292;6.000;2024-03-02T11:52:46;2.35;;;0.80;;
56537;SDS011;42435;53.292;6.000;2024-03-02T11:55:20;1.33;;;0.57;;
56537;SDS011;42435;53.292;6.000;2024-03-02T11:57:55;2.25;;;0.70;;
56537;SDS011;42435;53.292;6.000;2024-03-02T12:00:28;1.80;;;0.50;;
56537;SDS011;42435;53.292;6.000;2024-03-02T12:03:02;2.88;;;0.70;;
56537;SDS011;42435;53.292;6.000;2024-03-02T12:05:48;2.10;;;0.77;;
56537;SDS011;42435;53.292;6.000;2024-03-02T12:08:18;1.85;;;0.80;;
56537;SDS011;42435;53.292;6.000;2024-03-02T12:10:58;2.65;;;0.70;;
56537;SDS011;42435;53.292;6.000;2024-03-02T12:13:32;3.08;;;1.10;;
56537;SDS011;42435;53.292;6.000;2024-03-02T12:16:02;2.60;;;0.80;;
56537;SDS011;42435;53.292;6.000;2024-03-02T12:18:36;2.58;;;0.70;;
56537;SDS011;42435;53.292;6.000;2024-03-02T12:21:04;2.08;;;0.80;;
56537;SDS011;42435;53.292;6.000;2024-03-02T12:23:38;1.65;;;0.70;;
56537;SDS011;42435;53.292;6.000;2024-03-02T12:26:13;2.53;;;0.80;;
56537;SDS011;42435;53.292;6.000;2024-03-02T12:28:42;2.15;;;0.60;;
56537;SDS011;42435;53.292;6.000;2024-03-02T12:31:08;4.55;;;1.35;;
56537;SDS011;42435;53.292;6.000;2024-03-02T12:33:46;1.60;;;0.50;;
56537;SDS011;42435;53.292;6.000;2024-03-02T12:36:20;1.73;;;1.02;;
56537;SDS011;42435;53.292;6.000;2024-03-02T12:38:53;1.92;;;0.50;;
56537;SDS011;42435;53.292;6.000;2024-03-02T12:41:24;2.40;;;0.60;;
56537;SDS011;42435;53.292;6.000;2024-03-02T12:43:56;2.03;;;0.70;;
56537;SDS011;42435;53.292;6.000;2024-03-02T12:46:36;2.22;;;0.70;;
56537;SDS011;42435;53.292;6.000;2024-03-02T12:49:07;2.05;;;0.70;;
56537;SDS011;42435;53.292;6.000;2024-03-02T12:51:55;1.70;;;0.95;;
56537;SDS011;42435;53.292;6.000;2024-03-02T12:54:23;1.90;;;0.98;;
56537;SDS011;42435;53.292;6.000;2024-03-02T12:57:01;3.38;;;0.50;;
56537;SDS011;42435;53.292;6.000;2024-03-02T12:59:33;3.75;;;0.73;;
56537;SDS011;42435;53.292;6.000;2024-03-02T13:02:06;1.88;;;0.60;;
56537;SDS011;42435;53.292;6.000;2024-03-02T13:05:00;3.35;;;0.68;;
56537;SDS011;42435;53.292;6.000;2024-03-02T13:08:06;1.30;;;0.45;;
56537;SDS011;42435;53.292;6.000;2024-03-02T13:11:10;2.47;;;0.70;;
56537;SDS011;42435;53.292;6.000;2024-03-02T13:14:41;4.85;;;0.60;;
56537;SDS011;42435;53.292;6.000;2024-03-02T13:18:33;1.38;;;0.80;;
56537;SDS011;42435;53.292;6.000;2024-03-02T13:21:47;1.92;;;0.45;;
56537;SDS011;42435;53.292;6.000;2024-03-02T13:24:49;2.50;;;0.60;;
56537;SDS011;42435;53.292;6.000;2024-03-02T13:27:45;3.50;;;0.70;;
56537;SDS011;42435;53.292;6.000;2024-03-02T13:30:35;1.45;;;0.52;;
56537;SDS011;42435;53.292;6.000;2024-03-02T13:33:33;1.90;;;0.40;;
56537;SDS011;42435;53.292;6.000;2024-03-02T13:36:24;2.92;;;0.75;;
56537;SDS011;42435;53.292;6.000;2024-03-02T13:39:16;4.32;;;0.52;;
56537;SDS011;42435;53.292;6.000;2024-03-02T13:42:12;2.92;;;0.57;;
56537;SDS011;42435;53.292;6.000;2024-03-02T13:45:49;2.92;;;0.60;;
56537;SDS011;42435;53.292;6.000;2024-03-02T13:49:03;1.75;;;0.80;;
56537;SDS011;42435;53.292;6.000;2024-03-02T13:51:45;2.92;;;0.50;;
56537;SDS011;42435;53.292;6.000;2024-03-02T13:54:41;2.70;;;0.80;;
56537;SDS011;42435;53.292;6.000;2024-03-02T13:57:19;2.40;;;0.70;;
56537;SDS011;42435;53.292;6.000;2024-03-02T14:00:28;0.82;;;0.50;;
56537;SDS011;42435;53.292;6.000;2024-03-02T14:03:45;1.90;;;0.55;;
56537;SDS011;42435;53.292;6.000;2024-03-02T14:10:32;1.02;;;0.35;;
56537;SDS011;42435;53.292;6.000;2024-03-02T14:13:43;3.75;;;0.93;;
56537;SDS011;42435;53.292;6.000;2024-03-02T14:17:09;1.98;;;0.70;;
56537;SDS011;42435;53.292;6.000;2024-03-02T14:20:05;2.30;;;0.52;;
56537;SDS011;42435;53.292;6.000;2024-03-02T14:23:25;2.00;;;0.70;;
56537;SDS011;42435;53.292;6.000;2024-03-02T14:26:16;1.95;;;0.70;;
56537;SDS011;42435;53.292;6.000;2024-03-02T14:29:04;3.45;;;0.88;;
56537;SDS011;42435;53.292;6.000;2024-03-02T14:31:49;1.83;;;0.82;;
56537;SDS011;42435;53.292;6.000;2024-03-02T14:34:45;3.65;;;1.05;;
56537;SDS011;42435;53.292;6.000;2024-03-02T14:40:41;2.70;;;1.13;;
56537;SDS011;42435;53.292;6.000;2024-03-02T14:44:08;1.77;;;1.10;;
56537;SDS011;42435;53.292;6.000;2024-03-02T14:47:46;3.35;;;1.23;;
56537;SDS011;42435;53.292;6.000;2024-03-02T14:50:52;2.67;;;1.20;;
56537;SDS011;42435;53.292;6.000;2024-03-02T14:53:26;1.33;;;1.20;;
56537;SDS011;42435;53.292;6.000;2024-03-02T14:56:18;2.13;;;1.13;;
56537;SDS011;42435;53.292;6.000;2024-03-02T14:59:38;2.78;;;1.20;;
56537;SDS011;42435;53.292;6.000;2024-03-02T15:02:12;2.10;;;1.50;;
56537;SDS011;42435;53.292;6.000;2024-03-02T15:05:14;2.20;;;2.00;;
56537;SDS011;42435;53.292;6.000;2024-03-02T15:08:38;3.03;;;2.05;;
56537;SDS011;42435;53.292;6.000;2024-03-02T15:11:23;6.82;;;3.00;;
56537;SDS011;42435;53.292;6.000;2024-03-02T15:14:08;6.47;;;3.20;;
56537;SDS011;42435;53.292;6.000;2024-03-02T15:16:34;4.07;;;2.17;;
56537;SDS011;42435;53.292;6.000;2024-03-02T15:19:02;4.55;;;1.70;;
56537;SDS011;42435;53.292;6.000;2024-03-02T15:21:28;4.93;;;2.65;;
56537;SDS011;42435;53.292;6.000;2024-03-02T15:23:53;4.10;;;2.97;;
56537;SDS011;42435;53.292;6.000;2024-03-02T15:26:19;4.30;;;3.42;;
56537;SDS011;42435;53.292;6.000;2024-03-02T15:28:45;3.95;;;3.30;;
56537;SDS011;42435;53.292;6.000;2024-03-02T15:31:11;4.35;;;3.63;;
56537;SDS011;42435;53.292;6.000;2024-03-02T15:33:37;6.00;;;4.50;;
56537;SDS011;42435;53.292;6.000;2024-03-02T15:36:03;5.07;;;4.22;;
56537;SDS011;42435;53.292;6.000;2024-03-02T15:38:29;5.15;;;4.68;;
56537;SDS011;42435;53.292;6.000;2024-03-02T15:40:55;5.20;;;4.70;;
56537;SDS011;42435;53.292;6.000;2024-03-02T15:43:21;5.95;;;5.00;;
56537;SDS011;42435;53.292;6.000;2024-03-02T15:45:46;5.35;;;4.85;;
56537;SDS011;42435;53.292;6.000;2024-03-02T15:48:15;5.95;;;4.53;;
56537;SDS011;42435;53.292;6.000;2024-03-02T15:50:41;6.40;;;5.13;;
56537;SDS011;42435;53.292;6.000;2024-03-02T15:53:07;5.25;;;4.75;;
56537;SDS011;42435;53.292;6.000;2024-03-02T15:55:34;5.30;;;4.53;;
56537;SDS011;42435;53.292;6.000;2024-03-02T15:58:04;6.30;;;4.90;;
56537;SDS011;42435;53.292;6.000;2024-03-02T16:00:31;4.38;;;3.97;;
56537;SDS011;42435;53.292;6.000;2024-03-02T16:02:58;4.93;;;4.13;;
56537;SDS011;42435;53.292;6.000;2024-03-02T16:05:24;4.70;;;3.97;;
56537;SDS011;42435;53.292;6.000;2024-03-02T16:07:49;6.63;;;3.90;;
56537;SDS011;42435;53.292;6.000;2024-03-02T16:10:15;7.13;;;5.60;;
56537;SDS011;42435;53.292;6.000;2024-03-02T16:12:41;7.05;;;4.30;;
56537;SDS011;42435;53.292;6.000;2024-03-02T16:15:07;5.97;;;3.78;;
56537;SDS011;42435;53.292;6.000;2024-03-02T16:17:34;3.70;;;3.40;;
56537;SDS011;42435;53.292;6.000;2024-03-02T16:20:00;4.30;;;3.30;;
56537;SDS011;42435;53.292;6.000;2024-03-02T16:22:26;7.40;;;4.85;;
56537;SDS011;42435;53.292;6.000;2024-03-02T16:24:52;7.80;;;4.93;;
56537;SDS011;42435;53.292;6.000;2024-03-02T16:27:22;8.02;;;4.72;;